Time;durP1;ratioP1;P1;durP2;ratioP2;P2;SDS_P1;SDS_P2;PMS_P1;PMS_P2;Temp;Humidity;BMP_temperature;BMP_pressure;BME280_temperature;BME280_humidity;BME280_pressure;Samples;Min_cycle;Max_cycle;Signal;HPM_P1;HPM_P2
2022/10/06 00:00:49;;;;;;;1.33;0.70;;;21.30;63.30;;;;;;5105863;27;43441;-58
2022/10/06 00:03:17;;;;;;;1.85;0.47;;;21.30;63.30;;;;;;5106040;27;43609;-58
2022/10/06 00:05:44;;;;;;;1.25;0.85;;;21.30;63.30;;;;;;5090120;27;44200;-58
2022/10/06 00:08:12;;;;;;;2.00;0.90;;;21.30;63.30;;;;;;5107022;27;43440;-58
2022/10/06 00:10:39;;;;;;;1.38;0.65;;;21.30;63.40;;;;;;5106197;27;43432;-58
2022/10/06 00:13:07;;;;;;;1.08;0.70;;;21.30;63.30;;;;;;5106184;27;43435;-58
2022/10/06 00:15:34;;;;;;;0.90;0.70;;;21.30;63.30;;;;;;5108126;27;44158;-58
2022/10/06 00:18:02;;;;;;;1.00;0.70;;;21.30;63.30;;;;;;5110572;27;43492;-58
2022/10/06 00:20:30;;;;;;;1.50;0.80;;;21.30;63.30;;;;;;5115624;27;43439;-58
2022/10/06 00:22:57;;;;;;;0.98;0.63;;;21.30;63.30;;;;;;5106195;27;43593;-58
2022/10/06 00:25:27;;;;;;;2.03;0.80;;;21.30;63.30;;;;;;5108393;27;44049;-58
2022/10/06 00:27:55;;;;;;;0.93;0.70;;;21.20;63.30;;;;;;5109434;27;43505;-58
2022/10/06 00:30:25;;;;;;;1.50;0.70;;;21.20;63.30;;;;;;5110047;27;43370;-58
2022/10/06 00:33:01;;;;;;;1.75;0.80;;;21.20;63.20;;;;;;5091498;27;43465;-58
2022/10/06 00:35:32;;;;;;;1.58;0.80;;;21.20;63.20;;;;;;5108988;27;43808;-58
2022/10/06 00:38:00;;;;;;;1.05;0.60;;;21.20;63.20;;;;;;5074982;27;43474;-58
2022/10/06 00:40:29;;;;;;;0.80;0.80;;;21.20;63.20;;;;;;5109577;27;43414;-58
2022/10/06 00:42:59;;;;;;;2.35;0.60;;;21.20;63.20;;;;;;5091872;27;43601;-58
2022/10/06 00:45:39;;;;;;;1.38;0.75;;;21.20;63.20;;;;;;5111020;27;44063;-58
2022/10/06 00:48:17;;;;;;;0.85;0.80;;;21.20;63.20;;;;;;5074299;27;43508;-58
2022/10/06 00:50:46;;;;;;;0.85;0.75;;;21.20;63.10;;;;;;5109910;27;43418;-58
2022/10/06 00:53:14;;;;;;;0.88;0.77;;;21.20;63.20;;;;;;5120814;27;43591;-58
2022/10/06 00:55:42;;;;;;;1.70;0.98;;;21.10;63.10;;;;;;5091287;27;43788;-58
2022/10/06 00:58:11;;;;;;;0.90;0.90;;;21.10;63.10;;;;;;5109770;27;43594;-58
2022/10/06 01:00:42;;;;;;;0.88;0.80;;;21.10;63.20;;;;;;5110350;27;43527;-58
2022/10/06 01:03:16;;;;;;;1.57;0.90;;;21.10;63.10;;;;;;5110841;27;43537;-58
2022/10/06 01:05:47;;;;;;;1.00;0.90;;;21.10;63.20;;;;;;5073212;27;44470;-58
2022/10/06 01:08:16;;;;;;;1.25;0.80;;;21.10;63.20;;;;;;5087222;27;43445;-58
2022/10/06 01:10:43;;;;;;;1.63;1.27;;;21.10;63.20;;;;;;5093562;27;43983;-58
2022/10/06 01:13:12;;;;;;;1.17;0.80;;;21.10;63.10;;;;;;5109146;27;43592;-58
2022/10/06 01:15:49;;;;;;;1.75;0.93;;;21.10;63.10;;;;;;5108086;27;44824;-58
2022/10/06 01:18:19;;;;;;;1.25;0.70;;;21.00;63.10;;;;;;5109814;27;43412;-58
2022/10/06 01:20:52;;;;;;;2.03;1.10;;;21.00;63.10;;;;;;5117679;27;43384;-58
2022/10/06 01:23:20;;;;;;;1.25;0.88;;;21.00;63.00;;;;;;5108557;27;43453;-58
2022/10/06 01:25:48;;;;;;;2.20;0.93;;;21.00;63.10;;;;;;5089411;27;44676;-58
2022/10/06 01:28:16;;;;;;;2.05;1.00;;;21.00;63.10;;;;;;5092205;27;43476;-58
2022/10/06 01:30:52;;;;;;;1.58;1.00;;;21.00;63.10;;;;;;5110430;27;43442;-58
2022/10/06 01:33:23;;;;;;;3.08;0.98;;;21.00;63.00;;;;;;5090300;27;43467;-58
2022/10/06 01:35:52;;;;;;;2.00;0.98;;;21.00;63.10;;;;;;5090022;27;44339;-58
2022/10/06 01:38:20;;;;;;;1.38;1.05;;;21.00;63.00;;;;;;5086609;27;43996;-58
2022/10/06 01:40:52;;;;;;;1.88;1.20;;;21.00;63.10;;;;;;5099178;27;43431;-58
2022/10/06 01:43:20;;;;;;;1.60;0.80;;;21.00;63.20;;;;;;5097182;27;43507;-58
2022/10/06 01:45:56;;;;;;;1.85;1.00;;;20.90;63.00;;;;;;5089816;27;44975;-58
2022/10/06 01:48:24;;;;;;;2.10;0.95;;;20.90;63.00;;;;;;5091628;27;43686;-58
2022/10/06 01:50:55;;;;;;;1.65;0.90;;;20.90;63.10;;;;;;5073545;27;43416;-58
2022/10/06 01:53:22;;;;;;;1.02;0.90;;;20.90;63.00;;;;;;5089198;27;43533;-58
2022/10/06 01:55:50;;;;;;;1.63;1.10;;;20.90;63.00;;;;;;5101521;27;44711;-58
2022/10/06 01:58:23;;;;;;;3.75;1.27;;;20.90;63.00;;;;;;5102484;27;44054;-58
2022/10/06 02:00:51;;;;;;;1.48;0.90;;;20.90;63.00;;;;;;5072286;27;43472;-58
2022/10/06 02:03:18;;;;;;;1.73;0.90;;;20.90;63.00;;;;;;5089692;27;43482;-58
2022/10/06 02:05:46;;;;;;;2.08;1.10;;;20.90;63.10;;;;;;5075447;27;44229;-58
2022/10/06 02:08:14;;;;;;;1.52;0.82;;;20.90;63.10;;;;;;5096407;27;43455;-58
2022/10/06 02:10:42;;;;;;;1.92;1.00;;;20.90;63.20;;;;;;5073098;27;43464;-58
2022/10/06 02:13:17;;;;;;;1.73;0.70;;;20.80;63.10;;;;;;5089103;27;43483;-58
2022/10/06 02:15:44;;;;;;;1.70;1.10;;;20.80;63.10;;;;;;5110128;27;44931;-58
2022/10/06 02:18:12;;;;;;;1.92;1.08;;;20.80;63.10;;;;;;5102286;27;43586;-57
2022/10/06 02:20:40;;;;;;;3.05;1.42;;;20.80;63.00;;;;;;5111850;27;43400;-58
2022/10/06 02:23:07;;;;;;;3.13;1.08;;;20.80;63.10;;;;;;5086866;27;43542;-58
2022/10/06 02:25:35;;;;;;;1.77;0.90;;;20.80;63.10;;;;;;5110803;27;43647;-58
2022/10/06 02:28:02;;;;;;;1.63;1.08;;;20.80;63.10;;;;;;5107806;27;43517;-58
2022/10/06 02:30:31;;;;;;;2.33;0.93;;;20.80;63.00;;;;;;5089343;27;43403;-58
2022/10/06 02:32:59;;;;;;;1.98;1.00;;;20.80;63.10;;;;;;5090231;27;43550;-58
2022/10/06 02:35:27;;;;;;;2.13;1.10;;;20.80;63.20;;;;;;5091549;27;43821;-58
2022/10/06 02:37:54;;;;;;;1.45;1.10;;;20.70;63.10;;;;;;5108080;27;43491;-58
2022/10/06 02:40:21;;;;;;;1.48;0.93;;;20.70;63.10;;;;;;5107946;27;43418;-58
2022/10/06 02:42:50;;;;;;;2.80;1.08;;;20.70;63.10;;;;;;5073196;27;43685;-58
2022/10/06 02:45:20;;;;;;;1.15;0.95;;;20.70;63.10;;;;;;5091452;27;43799;-58
2022/10/06 02:47:48;;;;;;;2.00;1.08;;;20.70;63.10;;;;;;5072439;27;43461;-58
2022/10/06 02:50:16;;;;;;;2.05;1.10;;;20.70;63.10;;;;;;5087804;27;43415;-58
2022/10/06 02:52:44;;;;;;;2.30;1.35;;;20.70;63.10;;;;;;5090104;27;43580;-58
2022/10/06 02:55:12;;;;;;;3.05;1.20;;;20.70;63.10;;;;;;5091540;27;44904;-58
2022/10/06 02:57:39;;;;;;;2.38;1.08;;;20.70;63.20;;;;;;5104228;27;43393;-58
2022/10/06 03:00:07;;;;;;;2.65;0.93;;;20.70;63.10;;;;;;5089662;27;43458;-58
2022/10/06 03:02:35;;;;;;;1.83;1.10;;;20.70;63.20;;;;;;5089170;27;43504;-57
2022/10/06 03:05:04;;;;;;;2.15;1.00;;;20.70;63.10;;;;;;5091168;27;45003;-58
2022/10/06 03:07:32;;;;;;;2.35;1.20;;;20.60;63.10;;;;;;5088710;27;43699;-58
2022/10/06 03:10:00;;;;;;;1.60;0.80;;;20.60;63.10;;;;;;5107008;27;43514;-57
2022/10/06 03:12:28;;;;;;;3.28;1.33;;;20.70;63.20;;;;;;5101583;27;43557;-58
2022/10/06 03:14:56;;;;;;;1.88;1.13;;;20.60;63.10;;;;;;5108822;27;43799;-58
2022/10/06 03:17:24;;;;;;;2.67;1.30;;;20.60;63.20;;;;;;5088063;27;43473;-58
2022/10/06 03:19:56;;;;;;;2.15;1.20;;;20.60;63.20;;;;;;5087261;27;43420;-58
2022/10/06 03:22:24;;;;;;;2.10;1.10;;;20.60;63.20;;;;;;5096664;27;43507;-58
2022/10/06 03:24:56;;;;;;;1.55;1.30;;;20.60;63.20;;;;;;5088221;27;44246;-58
2022/10/06 03:27:24;;;;;;;2.65;1.10;;;20.60;63.20;;;;;;5088526;27;43702;-58
2022/10/06 03:29:56;;;;;;;2.78;1.23;;;20.60;63.20;;;;;;5087446;27;43491;-58
2022/10/06 03:32:26;;;;;;;2.22;1.23;;;20.60;63.80;;;;;;5084712;27;43669;-58
2022/10/06 03:34:54;;;;;;;2.42;1.15;;;20.60;63.20;;;;;;5089100;27;43793;-58
2022/10/06 03:37:22;;;;;;;2.30;1.10;;;20.50;63.10;;;;;;5106874;27;43440;-58
2022/10/06 03:39:50;;;;;;;2.60;1.30;;;20.50;63.10;;;;;;5088555;27;43442;-58
2022/10/06 03:42:18;;;;;;;2.45;1.17;;;20.50;63.10;;;;;;5095935;27;43592;-58
2022/10/06 03:44:47;;;;;;;3.38;1.55;;;20.50;63.20;;;;;;5087772;27;44029;-58
2022/10/06 03:47:14;;;;;;;2.95;1.02;;;20.50;63.20;;;;;;5107403;27;43408;-58
2022/10/06 03:49:45;;;;;;;2.03;1.15;;;20.50;63.20;;;;;;5072818;27;43506;-58
2022/10/06 03:52:14;;;;;;;2.08;1.02;;;20.50;63.30;;;;;;5090514;27;43676;-58
2022/10/06 03:54:41;;;;;;;2.67;1.10;;;20.50;63.20;;;;;;5092767;27;43922;-58
2022/10/06 03:57:09;;;;;;;2.33;1.13;;;20.50;63.30;;;;;;5095328;27;43511;-58
2022/10/06 03:59:37;;;;;;;2.00;1.30;;;20.50;63.30;;;;;;5107629;27;43439;-58
2022/10/06 04:02:06;;;;;;;2.05;1.33;;;20.50;63.30;;;;;;5094123;27;43540;-58
2022/10/06 04:04:37;;;;;;;1.63;1.00;;;20.50;63.30;;;;;;5091527;27;43805;-58
2022/10/06 04:07:09;;;;;;;2.58;1.35;;;20.50;63.40;;;;;;5058314;27;43384;-58
2022/10/06 04:09:37;;;;;;;2.90;0.98;;;20.40;63.30;;;;;;5094460;27;44050;-58
2022/10/06 04:12:05;;;;;;;2.45;1.10;;;20.50;63.30;;;;;;5111476;27;43514;-58
2022/10/06 04:14:36;;;;;;;2.27;1.13;;;20.50;63.30;;;;;;5073134;27;43658;-58
2022/10/06 04:17:05;;;;;;;1.60;0.90;;;20.40;63.30;;;;;;5091927;27;43556;-58
2022/10/06 04:19:38;;;;;;;1.80;1.17;;;20.40;63.30;;;;;;5098647;27;43408;-58
2022/10/06 04:22:06;;;;;;;2.08;1.10;;;20.40;63.40;;;;;;5092068;27;43596;-58
2022/10/06 04:24:35;;;;;;;2.42;1.10;;;20.40;63.30;;;;;;5094927;27;43838;-58
2022/10/06 04:30:07;;;;;;;2.90;1.27;;;20.40;63.30;;;;;;5091589;27;43427;-57
2022/10/06 04:32:35;;;;;;;2.10;0.95;;;20.40;63.30;;;;;;5091553;27;43609;-58
2022/10/06 04:35:03;;;;;;;1.65;0.98;;;20.40;63.30;;;;;;5092277;27;44685;-58
2022/10/06 04:37:31;;;;;;;1.95;1.13;;;20.40;63.30;;;;;;5095233;27;43413;-58
2022/10/06 04:39:59;;;;;;;2.92;1.10;;;20.40;63.30;;;;;;5091920;27;43376;-58
2022/10/06 04:42:28;;;;;;;2.70;1.40;;;20.30;63.20;;;;;;5091562;27;43428;-58
2022/10/06 04:45:04;;;;;;;1.83;1.10;;;20.40;63.30;;;;;;5093479;27;45295;-58
2022/10/06 04:47:32;;;;;;;1.65;1.20;;;20.30;63.30;;;;;;5091163;27;43439;-58
2022/10/06 04:50:00;;;;;;;1.17;0.95;;;20.30;63.30;;;;;;5090894;27;43488;-58
2022/10/06 04:52:27;;;;;;;2.35;1.02;;;20.30;63.30;;;;;;5093634;27;43468;-58
2022/10/06 04:54:55;;;;;;;2.03;0.98;;;20.30;63.30;;;;;;5096713;27;44080;-58
2022/10/06 04:57:22;;;;;;;1.30;1.00;;;20.30;63.30;;;;;;5091304;27;44069;-58
2022/10/06 05:02:42;;;;;;;1.88;1.30;;;20.30;63.20;;;;;;5094980;27;43528;-58
2022/10/06 05:05:10;;;;;;;2.40;1.15;;;20.30;63.30;;;;;;5104025;27;43757;-58
2022/10/06 05:07:38;;;;;;;2.22;1.17;;;20.30;63.20;;;;;;5086576;27;43493;-58
2022/10/06 05:10:05;;;;;;;1.77;1.13;;;20.30;63.40;;;;;;5114228;27;43967;-58
2022/10/06 05:12:33;;;;;;;1.63;1.00;;;20.30;63.50;;;;;;5114805;27;43574;-58
2022/10/06 05:15:00;;;;;;;1.67;1.35;;;20.30;63.30;;;;;;5116376;27;43788;-58
2022/10/06 05:17:28;;;;;;;3.40;1.55;;;20.30;63.30;;;;;;5104448;27;43321;-58
2022/10/06 05:19:56;;;;;;;1.27;0.88;;;20.30;63.30;;;;;;5105666;27;43418;-57
2022/10/06 05:22:23;;;;;;;2.28;1.00;;;20.30;63.30;;;;;;5113226;27;43495;-58
2022/10/06 05:24:52;;;;;;;1.58;1.00;;;20.30;63.30;;;;;;5097282;27;44828;-58
2022/10/06 05:27:20;;;;;;;1.83;1.13;;;20.30;63.30;;;;;;5097380;27;43450;-57
2022/10/06 05:29:47;;;;;;;1.98;1.15;;;20.30;63.30;;;;;;5096084;27;43466;-57
2022/10/06 05:32:15;;;;;;;2.42;1.20;;;20.30;63.20;;;;;;5098359;27;43529;-58
2022/10/06 05:34:42;;;;;;;1.55;0.90;;;20.30;63.30;;;;;;5117491;27;43737;-58
2022/10/06 05:37:10;;;;;;;1.77;1.15;;;20.30;63.40;;;;;;5117346;27;43466;-58
2022/10/06 05:39:38;;;;;;;1.80;1.20;;;20.30;63.30;;;;;;5091053;27;43501;-57
2022/10/06 05:42:05;;;;;;;1.40;1.13;;;20.30;63.40;;;;;;5101319;27;43580;-57
2022/10/06 05:44:33;;;;;;;2.42;1.00;;;20.30;63.40;;;;;;5099375;27;43810;-58
2022/10/06 05:47:05;;;;;;;2.25;0.98;;;20.30;63.40;;;;;;5098827;27;43510;-58
2022/10/06 05:49:33;;;;;;;1.90;1.20;;;20.30;63.40;;;;;;5093514;27;43426;-58
2022/10/06 05:52:03;;;;;;;2.10;1.08;;;20.30;63.60;;;;;;5096436;27;43547;-58
2022/10/06 05:54:33;;;;;;;2.53;1.42;;;20.30;63.50;;;;;;5100384;27;44666;-58
2022/10/06 05:57:00;;;;;;;2.17;1.10;;;20.30;63.70;;;;;;5089885;27;43506;-58
2022/10/06 05:59:30;;;;;;;2.20;1.27;;;20.20;63.60;;;;;;5096251;27;44054;-58
2022/10/06 06:01:58;;;;;;;3.33;1.27;;;20.20;63.60;;;;;;5082316;27;43494;-58
2022/10/06 06:04:46;;;;;;;3.38;1.58;;;20.20;63.60;;;;;;5111943;27;44757;-58
2022/10/06 06:07:14;;;;;;;1.90;0.90;;;20.20;63.60;;;;;;5112515;27;43508;-58
2022/10/06 06:09:43;;;;;;;2.30;1.20;;;20.20;63.70;;;;;;5097943;27;43384;-58
2022/10/06 06:12:11;;;;;;;2.88;1.20;;;20.20;63.50;;;;;;5100237;27;43612;-58
2022/10/06 06:17:38;;;;;;;1.90;1.20;;;20.20;63.80;;;;;;5100975;27;43385;-58
2022/10/06 06:20:06;;;;;;;1.67;1.15;;;20.20;63.80;;;;;;5095183;27;43448;-58
2022/10/06 06:22:34;;;;;;;2.88;1.38;;;20.20;63.70;;;;;;5108056;27;43423;-58
2022/10/06 06:25:04;;;;;;;3.22;1.02;;;20.10;63.60;;;;;;5086055;27;44023;-58
2022/10/06 06:27:31;;;;;;;2.13;1.10;;;20.10;63.50;;;;;;5094195;27;43336;-59
2022/10/06 06:29:59;;;;;;;2.08;1.00;;;20.10;63.70;;;;;;5096436;27;43545;-58
2022/10/06 06:32:27;;;;;;;3.38;1.25;;;20.10;63.80;;;;;;5104725;27;43466;-59
2022/10/06 06:34:56;;;;;;;2.30;1.10;;;20.10;63.80;;;;;;5093442;27;44212;-58
2022/10/06 06:37:24;;;;;;;1.75;1.15;;;20.10;63.90;;;;;;5075311;27;44045;-58
2022/10/06 06:39:51;;;;;;;3.25;1.50;;;20.10;63.80;;;;;;5098662;27;43495;-58
2022/10/06 06:42:20;;;;;;;2.55;1.27;;;20.10;63.70;;;;;;5096773;27;43477;-58
2022/10/06 06:44:55;;;;;;;2.25;1.20;;;20.10;63.90;;;;;;5075687;27;44186;-58
2022/10/06 06:47:42;;;;;;;2.17;1.30;;;20.10;63.80;;;;;;5064583;27;43489;-58
2022/10/06 06:50:11;;;;;;;1.25;1.00;;;20.10;63.80;;;;;;5104150;27;43471;-58
2022/10/06 06:52:40;;;;;;;2.58;1.40;;;20.10;63.80;;;;;;5092726;27;43609;-58
2022/10/06 06:55:10;;;;;;;2.22;1.27;;;20.10;64.40;;;;;;5089570;27;44031;-59
2022/10/06 06:57:38;;;;;;;2.38;1.50;;;20.10;63.70;;;;;;5112892;27;43475;-58
2022/10/06 07:00:07;;;;;;;2.05;1.15;;;20.10;63.80;;;;;;5104276;27;43497;-58
2022/10/06 07:02:37;;;;;;;2.88;1.33;;;20.10;63.80;;;;;;5091954;27;43506;-58
2022/10/06 07:05:05;;;;;;;1.98;1.00;;;20.10;63.80;;;;;;5090628;27;43785;-58
2022/10/06 07:07:32;;;;;;;1.90;1.00;;;20.10;63.80;;;;;;5106717;27;44019;-59
2022/10/06 07:10:00;;;;;;;1.67;1.20;;;20.10;63.80;;;;;;5100559;27;43451;-59
2022/10/06 07:12:30;;;;;;;3.42;1.40;;;20.10;63.80;;;;;;5103560;27;43439;-58
2022/10/06 07:26:13;;;;;;;3.17;1.48;;;20.00;63.80;;;;;;5095660;27;44057;-58
2022/10/06 07:28:41;;;;;;;3.78;1.38;;;20.00;63.90;;;;;;5098133;27;43387;-59
2022/10/06 07:31:10;;;;;;;2.88;1.30;;;20.00;63.80;;;;;;5097944;27;43449;-58
2022/10/06 07:33:39;;;;;;;3.60;1.30;;;20.00;63.90;;;;;;5089390;27;43511;-58
2022/10/06 07:36:09;;;;;;;3.30;1.02;;;20.00;63.90;;;;;;5097848;27;43903;-58
2022/10/06 07:38:40;;;;;;;2.88;1.20;;;20.00;64.00;;;;;;5098962;27;43390;-58
2022/10/06 07:41:08;;;;;;;2.63;1.23;;;20.00;63.90;;;;;;5098949;27;43381;-60
2022/10/06 07:43:56;;;;;;;4.22;1.55;;;20.00;63.90;;;;;;5087703;27;43518;-59
2022/10/06 07:46:28;;;;;;;4.10;1.55;;;20.00;64.00;;;;;;5091866;27;43545;-60
2022/10/06 07:49:01;;;;;;;3.92;2.15;;;20.00;64.00;;;;;;5092605;27;43363;-58
2022/10/06 07:51:29;;;;;;;5.55;2.28;;;20.00;64.10;;;;;;5071749;27;43485;-58
2022/10/06 07:53:58;;;;;;;3.88;2.00;;;20.00;64.00;;;;;;5094689;27;43459;-59
2022/10/06 07:56:33;;;;;;;4.43;2.25;;;20.00;64.00;;;;;;5096603;27;43931;-58
2022/10/06 07:59:01;;;;;;;5.40;2.13;;;20.10;64.00;;;;;;5102137;27;43457;-58
2022/10/06 08:01:29;;;;;;;4.82;2.25;;;20.10;63.90;;;;;;5090875;27;43468;-59
2022/10/06 08:03:57;;;;;;;3.13;1.95;;;20.20;63.90;;;;;;5088826;27;43604;-58
2022/10/06 08:06:24;;;;;;;4.28;2.42;;;20.30;63.80;;;;;;5097804;27;44985;-58
2022/10/06 08:08:52;;;;;;;2.67;1.88;;;20.30;63.60;;;;;;5092261;27;43815;-58
2022/10/06 08:11:21;;;;;;;3.35;1.70;;;20.40;63.60;;;;;;5096655;27;43497;-59
2022/10/06 08:13:50;;;;;;;2.92;1.80;;;20.50;63.50;;;;;;5088695;27;43458;-58
2022/10/06 08:16:20;;;;;;;3.33;1.90;;;20.60;63.40;;;;;;5099157;27;44989;-59
2022/10/06 08:18:54;;;;;;;3.60;1.67;;;20.60;63.20;;;;;;5097825;27;44784;-59
2022/10/06 08:21:25;;;;;;;3.75;1.95;;;20.80;63.10;;;;;;5092678;27;44036;-58
2022/10/06 08:23:55;;;;;;;3.80;2.17;;;20.90;63.00;;;;;;5093858;27;43490;-58
2022/10/06 08:26:25;;;;;;;2.72;1.85;;;21.00;62.90;;;;;;5093279;27;43957;-58
2022/10/06 08:28:56;;;;;;;2.75;1.77;;;21.10;62.70;;;;;;5087616;27;43919;-58
2022/10/06 08:31:24;;;;;;;2.33;1.73;;;21.10;62.50;;;;;;5091001;27;43366;-60
2022/10/06 08:33:56;;;;;;;2.97;1.80;;;21.20;62.30;;;;;;5096233;27;43458;-59
2022/10/06 08:36:26;;;;;;;4.05;1.88;;;21.30;62.60;;;;;;5092000;27;43903;-58
2022/10/06 08:38:58;;;;;;;2.42;1.60;;;21.40;63.00;;;;;;5090803;27;43484;-60
2022/10/06 08:41:47;;;;;;;3.97;1.80;;;21.50;62.50;;;;;;5093853;27;43393;-59
2022/10/06 08:44:18;;;;;;;4.28;1.88;;;21.60;62.10;;;;;;5101668;27;43857;-58
2022/10/06 08:46:54;;;;;;;4.22;1.75;;;21.70;62.00;;;;;;5110478;27;45371;-59
2022/10/06 08:49:24;;;;;;;2.90;1.50;;;21.80;61.90;;;;;;5114567;27;43327;-59
2022/10/06 08:52:17;;;;;;;5.13;1.80;;;21.90;61.80;;;;;;5121509;27;43415;-59
2022/10/06 08:55:10;;;;;;;2.95;1.50;;;22.00;61.60;;;;;;5114777;27;44072;-59
2022/10/06 08:57:56;;;;;;;3.05;1.70;;;22.10;61.50;;;;;;5107643;27;44401;-59
2022/10/06 09:00:23;;;;;;;4.43;1.77;;;22.20;61.30;;;;;;5117477;27;43956;-58
2022/10/06 09:02:52;;;;;;;3.15;1.70;;;22.30;61.10;;;;;;5122660;27;43436;-58
2022/10/06 09:05:25;;;;;;;3.35;1.55;;;22.40;60.90;;;;;;5105936;27;43600;-58
2022/10/06 09:08:11;;;;;;;2.15;1.60;;;22.50;60.80;;;;;;5115343;27;44007;-58
2022/10/06 09:10:38;;;;;;;3.08;1.40;;;22.70;60.50;;;;;;5117462;27;43587;-58
2022/10/06 09:13:13;;;;;;;6.43;1.92;;;22.70;60.40;;;;;;5117580;27;43473;-58
2022/10/06 09:15:57;;;;;;;4.05;1.83;;;22.80;60.30;;;;;;5110853;27;43452;-58
2022/10/06 09:18:29;;;;;;;2.05;1.33;;;22.90;60.10;;;;;;5122436;27;44056;-58
2022/10/06 09:21:37;;;;;;;3.35;1.60;;;22.80;60.00;;;;;;5105291;27;43485;-57
2022/10/06 09:24:14;;;;;;;3.97;1.70;;;22.90;59.90;;;;;;5101653;27;43628;-58
2022/10/06 09:26:45;;;;;;;2.58;1.50;;;22.90;60.00;;;;;;5101978;27;43441;-58
2022/10/06 09:29:13;;;;;;;2.53;1.50;;;22.90;59.90;;;;;;5117192;27;44098;-59
2022/10/06 09:31:43;;;;;;;3.00;1.50;;;22.90;59.90;;;;;;5100233;27;43421;-58
2022/10/06 09:34:36;;;;;;;5.40;1.80;;;22.90;59.80;;;;;;5101174;27;43489;-58
2022/10/06 09:37:07;;;;;;;2.58;1.30;;;22.90;59.70;;;;;;5111418;27;43469;-58
2022/10/06 09:39:37;;;;;;;3.55;1.60;;;22.90;59.70;;;;;;5112828;27;43826;-58
2022/10/06 09:42:27;;;;;;;2.85;1.50;;;22.90;59.80;;;;;;5116936;27;43699;-58
2022/10/06 09:45:05;;;;;;;3.97;1.50;;;22.90;59.70;;;;;;5109983;27;43463;-58
2022/10/06 09:47:38;;;;;;;3.78;1.70;;;22.90;59.80;;;;;;5115996;27;43495;-58
2022/10/06 09:50:20;;;;;;;2.97;1.42;;;22.90;59.90;;;;;;5119083;27;43784;-58
2022/10/06 09:52:57;;;;;;;4.18;1.70;;;22.80;59.90;;;;;;5114487;27;43494;-58
2022/10/06 09:55:32;;;;;;;3.17;1.95;;;22.90;59.90;;;;;;5116357;27;43429;-58
2022/10/06 09:58:01;;;;;;;4.55;1.80;;;22.80;60.00;;;;;;5099599;27;43433;-58
2022/10/06 10:00:55;;;;;;;2.72;1.60;;;22.70;59.90;;;;;;5118683;27;43802;-59
2022/10/06 10:03:31;;;;;;;5.00;1.75;;;22.70;60.10;;;;;;5117301;27;43404;-58
2022/10/06 10:06:01;;;;;;;4.38;1.60;;;22.70;59.90;;;;;;5117418;27;43494;-58
2022/10/06 10:08:31;;;;;;;2.80;1.45;;;22.70;60.10;;;;;;5114518;27;43428;-58
2022/10/06 10:12:23;;;;;;;5.03;1.73;;;22.60;60.10;;;;;;5121632;27;43960;-58
2022/10/06 10:13:58;;;;;;;3.40;1.50;;;22.60;60.10;;;;;;5114980;27;43954;-59
2022/10/06 10:16:35;;;;;;;2.90;1.48;;;22.60;60.20;;;;;;5099411;27;43395;-58
2022/10/06 10:19:04;;;;;;;2.83;1.50;;;22.60;60.20;;;;;;5116013;27;43609;-58
2022/10/06 10:21:34;;;;;;;3.65;1.52;;;22.60;60.30;;;;;;5103099;27;44051;-58
2022/10/06 10:24:06;;;;;;;4.13;1.58;;;22.60;60.40;;;;;;5114913;27;43384;-57
2022/10/06 10:26:37;;;;;;;3.20;1.70;;;22.60;60.40;;;;;;5116680;27;43396;-57
2022/10/06 10:29:21;;;;;;;3.20;1.80;;;22.60;60.50;;;;;;5117413;27;43536;-58
2022/10/06 10:32:30;;;;;;;3.85;1.58;;;22.50;60.50;;;;;;5096437;27;44242;-58
2022/10/06 10:35:12;;;;;;;4.75;1.30;;;22.50;60.50;;;;;;5104702;27;43490;-58
2022/10/06 10:37:55;;;;;;;3.33;1.40;;;22.50;60.50;;;;;;5114861;27;43599;-58
2022/10/06 10:40:31;;;;;;;3.53;1.58;;;22.50;60.50;;;;;;5115121;27;43423;-59
2022/10/06 10:43:16;;;;;;;3.03;1.50;;;22.50;60.60;;;;;;5123354;27;43737;-58
2022/10/06 10:45:58;;;;;;;3.83;1.58;;;22.50;60.60;;;;;;5121674;27;43422;-58
2022/10/06 10:48:32;;;;;;;3.38;1.50;;;22.40;60.50;;;;;;5111995;27;43380;-58
2022/10/06 10:51:37;;;;;;;3.70;1.58;;;22.40;60.50;;;;;;5116233;27;43405;-58
2022/10/06 10:54:13;;;;;;;3.72;1.48;;;22.40;60.60;;;;;;5093636;27;43645;-58
2022/10/06 10:56:42;;;;;;;3.28;1.40;;;22.30;60.80;;;;;;5113708;27;43418;-57
2022/10/06 10:59:24;;;;;;;2.55;1.40;;;22.30;60.80;;;;;;5114433;27;43461;-58
2022/10/06 11:02:03;;;;;;;5.05;1.77;;;22.30;60.90;;;;;;5114850;27;43534;-58
2022/10/06 11:04:31;;;;;;;3.28;1.52;;;22.30;60.90;;;;;;5108693;27;43788;-58
2022/10/06 11:07:10;;;;;;;3.17;1.83;;;22.30;60.80;;;;;;5111412;27;43707;-58
2022/10/06 11:09:57;;;;;;;3.55;1.40;;;22.30;60.70;;;;;;5109528;27;43508;-58
2022/10/06 11:12:55;;;;;;;4.95;2.03;;;22.20;60.70;;;;;;5117789;27;43424;-57
2022/10/06 11:15:57;;;;;;;1.98;1.20;;;22.30;60.80;;;;;;5106152;27;44097;-58
2022/10/06 11:18:40;;;;;;;2.80;1.40;;;22.30;60.80;;;;;;5110372;27;43466;-58
2022/10/06 11:21:22;;;;;;;3.67;1.55;;;22.30;60.80;;;;;;5111970;27;43403;-58
2022/10/06 11:23:50;;;;;;;2.55;1.40;;;22.30;60.80;;;;;;5121284;27;43580;-58
2022/10/06 11:26:55;;;;;;;3.08;1.63;;;22.30;60.80;;;;;;5108241;27;43794;-58
2022/10/06 11:29:47;;;;;;;3.80;1.45;;;22.30;60.80;;;;;;5112747;27;43474;-58
2022/10/06 11:32:33;;;;;;;2.67;1.30;;;22.30;60.70;;;;;;5120481;27;43446;-58
2022/10/06 11:35:05;;;;;;;2.50;1.40;;;22.30;60.60;;;;;;5113553;27;43351;-58
2022/10/06 11:37:37;;;;;;;2.92;1.20;;;22.30;60.60;;;;;;5111004;27;44976;-58
2022/10/06 11:40:15;;;;;;;4.07;1.48;;;22.30;60.60;;;;;;5120225;27;43466;-58
2022/10/06 11:43:14;;;;;;;2.38;1.15;;;22.30;60.50;;;;;;5115357;27;43525;-58
2022/10/06 11:45:56;;;;;;;1.98;1.02;;;22.30;60.50;;;;;;5093546;27;43479;-58
2022/10/06 11:48:25;;;;;;;3.00;1.30;;;22.30;60.40;;;;;;5094482;27;44975;-58
2022/10/06 11:50:56;;;;;;;4.07;1.50;;;22.30;60.40;;;;;;5089214;27;43467;-57
2022/10/06 11:53:38;;;;;;;2.78;1.15;;;22.30;60.30;;;;;;5091209;27;43415;-57
2022/10/06 11:56:18;;;;;;;1.63;1.10;;;22.30;60.40;;;;;;5097071;27;43460;-57
2022/10/06 11:58:55;;;;;;;3.08;1.40;;;22.30;60.40;;;;;;5096789;27;43894;-57
2022/10/06 12:01:37;;;;;;;3.00;1.20;;;22.30;60.30;;;;;;5101726;27;43396;-57
2022/10/06 12:04:08;;;;;;;2.88;1.20;;;22.30;60.40;;;;;;5087493;27;43403;-57
2022/10/06 12:06:44;;;;;;;4.87;1.60;;;22.30;60.40;;;;;;5090967;27;43454;-57
2022/10/06 12:09:37;;;;;;;2.85;1.25;;;22.30;60.30;;;;;;5100624;27;43806;-58
2022/10/06 12:12:13;;;;;;;2.97;1.20;;;22.30;60.20;;;;;;5096109;27;43900;-57
2022/10/06 12:14:49;;;;;;;4.20;1.60;;;22.30;60.40;;;;;;5090962;27;43499;-57
2022/10/06 12:17:57;;;;;;;4.68;1.70;;;22.30;60.30;;;;;;5094423;27;43538;-58
2022/10/06 12:20:48;;;;;;;2.38;1.40;;;22.30;60.40;;;;;;5093554;27;43780;-58
2022/10/06 12:23:32;;;;;;;;;;;22.30;60.40;;;;;;5092327;27;43636;-58
2022/10/06 12:26:18;;;;;;;2.88;1.05;;;22.30;60.40;;;;;;5096967;27;43414;-58
2022/10/06 12:29:33;;;;;;;2.50;1.30;;;22.30;60.50;;;;;;5096602;27;43437;-58
2022/10/06 12:32:11;;;;;;;1.90;1.30;;;22.30;60.40;;;;;;5079452;27;43692;-58
2022/10/06 12:34:41;;;;;;;1.75;1.00;;;22.30;60.40;;;;;;5088905;27;44397;-58
2022/10/06 12:37:27;;;;;;;2.80;1.10;;;22.30;60.40;;;;;;5102340;27;43440;-58
2022/10/06 12:40:32;;;;;;;2.22;1.33;;;22.30;60.30;;;;;;5100358;27;43476;-57
2022/10/06 12:43:21;;;;;;;1.92;0.90;;;22.30;60.20;;;;;;5100444;27;44153;-58
2022/10/06 12:45:55;;;;;;;2.28;1.10;;;22.30;60.20;;;;;;5109713;27;43481;-58
2022/10/06 12:48:44;;;;;;;1.70;1.00;;;22.30;60.20;;;;;;5117180;27;43485;-58
2022/10/06 12:51:33;;;;;;;1.98;1.10;;;22.30;60.20;;;;;;5121824;27;43974;-58
2022/10/06 12:54:27;;;;;;;3.30;1.60;;;22.30;60.30;;;;;;5110094;27;44992;-58
2022/10/06 12:56:58;;;;;;;2.53;1.15;;;22.30;60.20;;;;;;5116738;27;44003;-57
2022/10/06 12:59:37;;;;;;;2.20;1.00;;;22.30;60.40;;;;;;5123979;27;43458;-58
2022/10/06 13:02:24;;;;;;;1.67;1.10;;;22.30;60.40;;;;;;5114640;27;43462;-58
2022/10/06 13:04:53;;;;;;;2.75;1.13;;;22.30;60.40;;;;;;5110588;27;44163;-58
2022/10/06 13:07:28;;;;;;;3.10;1.00;;;22.30;60.40;;;;;;5118100;27;43449;-58
2022/10/06 13:10:20;;;;;;;1.63;0.95;;;22.30;60.40;;;;;;5118393;27;43355;-58
2022/10/06 13:12:50;;;;;;;1.42;1.02;;;22.30;60.50;;;;;;5101979;27;43560;-58
2022/10/06 13:15:38;;;;;;;2.40;1.10;;;22.30;60.40;;;;;;5116113;27;43817;-58
2022/10/06 13:18:11;;;;;;;2.45;1.27;;;22.30;60.50;;;;;;5114165;27;43375;-58
2022/10/06 13:20:39;;;;;;;1.45;0.95;;;22.30;60.50;;;;;;5119720;27;43417;-58
2022/10/06 13:23:41;;;;;;;1.30;0.80;;;22.30;60.40;;;;;;5118892;27;43490;-58
2022/10/06 13:26:29;;;;;;;3.05;1.20;;;22.30;60.30;;;;;;5106853;27;44099;-58
2022/10/06 13:28:58;;;;;;;2.75;1.10;;;22.40;60.50;;;;;;5114973;27;43468;-58
2022/10/06 13:31:30;;;;;;;1.92;1.17;;;22.40;60.50;;;;;;5115223;27;43392;-58
2022/10/06 13:33:59;;;;;;;3.22;1.20;;;22.40;60.50;;;;;;5094771;27;43431;-58
2022/10/06 13:36:33;;;;;;;2.17;0.90;;;22.40;60.60;;;;;;5111010;27;43848;-57
2022/10/06 13:39:04;;;;;;;3.42;1.13;;;22.40;60.40;;;;;;5092518;27;43672;-58